sensor_id;sensor_type;location;lat;lon;timestamp;P1;durP1;ratioP1;P2;durP2;ratioP2
72524;SDS011;60547;48.502;8.996;2023-03-31T00:00:29;5.25;;;1.77;;
72524;SDS011;60547;48.502;8.996;2023-03-31T00:02:55;4.90;;;1.92;;
72524;SDS011;60547;48.502;8.996;2023-03-31T00:05:23;5.97;;;1.50;;
72524;SDS011;60547;48.502;8.996;2023-03-31T00:07:52;6.20;;;1.48;;
72524;SDS011;60547;48.502;8.996;2023-03-31T00:10:19;7.20;;;1.45;;
72524;SDS011;60547;48.502;8.996;2023-03-31T00:12:46;4.50;;;1.40;;
72524;SDS011;60547;48.502;8.996;2023-03-31T00:15:12;4.90;;;1.40;;
72524;SDS011;60547;48.502;8.996;2023-03-31T00:17:37;4.78;;;1.73;;
72524;SDS011;60547;48.502;8.996;2023-03-31T00:20:04;4.68;;;1.70;;
72524;SDS011;60547;48.502;8.996;2023-03-31T00:22:33;6.40;;;1.70;;
72524;SDS011;60547;48.502;8.996;2023-03-31T00:24:58;4.88;;;1.55;;
72524;SDS011;60547;48.502;8.996;2023-03-31T00:27:24;5.15;;;1.60;;
72524;SDS011;60547;48.502;8.996;2023-03-31T00:29:52;4.78;;;1.60;;
72524;SDS011;60547;48.502;8.996;2023-03-31T00:32:17;5.00;;;1.60;;
72524;SDS011;60547;48.502;8.996;2023-03-31T00:34:44;3.33;;;1.23;;
72524;SDS011;60547;48.502;8.996;2023-03-31T00:37:10;4.78;;;1.45;;
72524;SDS011;60547;48.502;8.996;2023-03-31T00:39:39;4.93;;;1.70;;
72524;SDS011;60547;48.502;8.996;2023-03-31T00:42:05;6.57;;;2.03;;
72524;SDS011;60547;48.502;8.996;2023-03-31T00:44:34;6.78;;;2.10;;
72524;SDS011;60547;48.502;8.996;2023-03-31T00:47:11;8.13;;;2.10;;
72524;SDS011;60547;48.502;8.996;2023-03-31T00:49:40;10.65;;;2.33;;
72524;SDS011;60547;48.502;8.996;2023-03-31T00:52:15;8.57;;;2.15;;
72524;SDS011;60547;48.502;8.996;2023-03-31T00:54:46;6.80;;;2.35;;
72524;SDS011;60547;48.502;8.996;2023-03-31T00:57:15;6.68;;;2.47;;
72524;SDS011;60547;48.502;8.996;2023-03-31T00:59:45;4.57;;;1.70;;
72524;SDS011;60547;48.502;8.996;2023-03-31T01:02:16;6.50;;;1.75;;
72524;SDS011;60547;48.502;8.996;2023-03-31T01:04:48;3.60;;;1.52;;
72524;SDS011;60547;48.502;8.996;2023-03-31T01:09:56;5.57;;;2.08;;
72524;SDS011;60547;48.502;8.996;2023-03-31T01:12:24;5.90;;;1.83;;
72524;SDS011;60547;48.502;8.996;2023-03-31T01:14:51;4.57;;;1.63;;
72524;SDS011;60547;48.502;8.996;2023-03-31T01:17:18;11.65;;;2.60;;
72524;SDS011;60547;48.502;8.996;2023-03-31T01:22:32;6.13;;;2.10;;
72524;SDS011;60547;48.502;8.996;2023-03-31T01:27:42;5.10;;;2.00;;
72524;SDS011;60547;48.502;8.996;2023-03-31T01:30:41;6.65;;;1.95;;
72524;SDS011;60547;48.502;8.996;2023-03-31T01:46:35;4.15;;;1.60;;
72524;SDS011;60547;48.502;8.996;2023-03-31T01:52:03;6.78;;;1.60;;
72524;SDS011;60547;48.502;8.996;2023-03-31T02:03:01;5.03;;;2.08;;
72524;SDS011;60547;48.502;8.996;2023-03-31T02:05:40;7.47;;;2.17;;
72524;SDS011;60547;48.502;8.996;2023-03-31T02:08:12;5.03;;;1.65;;
72524;SDS011;60547;48.502;8.996;2023-03-31T02:10:41;7.20;;;2.03;;
72524;SDS011;60547;48.502;8.996;2023-03-31T02:13:10;6.88;;;2.17;;
72524;SDS011;60547;48.502;8.996;2023-03-31T02:15:38;8.00;;;2.33;;
72524;SDS011;60547;48.502;8.996;2023-03-31T02:18:08;4.63;;;1.95;;
72524;SDS011;60547;48.502;8.996;2023-03-31T02:20:40;4.50;;;1.73;;
72524;SDS011;60547;48.502;8.996;2023-03-31T02:23:07;7.68;;;2.22;;
72524;SDS011;60547;48.502;8.996;2023-03-31T02:25:47;6.07;;;2.30;;
72524;SDS011;60547;48.502;8.996;2023-03-31T02:28:17;6.28;;;2.60;;
72524;SDS011;60547;48.502;8.996;2023-03-31T02:30:50;5.93;;;2.00;;
72524;SDS011;60547;48.502;8.996;2023-03-31T02:33:17;5.05;;;1.90;;
72524;SDS011;60547;48.502;8.996;2023-03-31T02:35:43;6.45;;;1.92;;
72524;SDS011;60547;48.502;8.996;2023-03-31T02:38:08;7.68;;;2.60;;
72524;SDS011;60547;48.502;8.996;2023-03-31T02:40:36;6.97;;;3.00;;
72524;SDS011;60547;48.502;8.996;2023-03-31T02:43:01;6.28;;;2.05;;
72524;SDS011;60547;48.502;8.996;2023-03-31T02:48:10;6.18;;;2.03;;
72524;SDS011;60547;48.502;8.996;2023-03-31T02:53:47;5.10;;;1.98;;
72524;SDS011;60547;48.502;8.996;2023-03-31T02:56:45;6.70;;;2.25;;
72524;SDS011;60547;48.502;8.996;2023-03-31T02:59:22;7.57;;;2.53;;
72524;SDS011;60547;48.502;8.996;2023-03-31T03:16:08;7.78;;;2.25;;
72524;SDS011;60547;48.502;8.996;2023-03-31T03:18:43;6.97;;;2.22;;
72524;SDS011;60547;48.502;8.996;2023-03-31T03:21:16;6.10;;;2.13;;
72524;SDS011;60547;48.502;8.996;2023-03-31T03:23:42;7.55;;;2.30;;
72524;SDS011;60547;48.502;8.996;2023-03-31T03:26:10;6.38;;;2.17;;
72524;SDS011;60547;48.502;8.996;2023-03-31T03:28:35;6.82;;;2.17;;
72524;SDS011;60547;48.502;8.996;2023-03-31T03:31:01;9.25;;;2.95;;
72524;SDS011;60547;48.502;8.996;2023-03-31T03:33:26;5.68;;;2.25;;
72524;SDS011;60547;48.502;8.996;2023-03-31T03:35:51;6.88;;;2.58;;
72524;SDS011;60547;48.502;8.996;2023-03-31T03:38:17;7.97;;;2.80;;
72524;SDS011;60547;48.502;8.996;2023-03-31T03:40:42;6.53;;;2.63;;
72524;SDS011;60547;48.502;8.996;2023-03-31T03:43:08;7.28;;;2.80;;
72524;SDS011;60547;48.502;8.996;2023-03-31T03:45:33;9.13;;;3.15;;
72524;SDS011;60547;48.502;8.996;2023-03-31T03:47:59;5.55;;;2.70;;
72524;SDS011;60547;48.502;8.996;2023-03-31T03:50:24;7.38;;;3.20;;
72524;SDS011;60547;48.502;8.996;2023-03-31T03:52:50;5.30;;;2.88;;
72524;SDS011;60547;48.502;8.996;2023-03-31T03:55:15;10.43;;;3.13;;
72524;SDS011;60547;48.502;8.996;2023-03-31T03:57:41;5.88;;;2.97;;
72524;SDS011;60547;48.502;8.996;2023-03-31T04:00:07;7.25;;;2.92;;
72524;SDS011;60547;48.502;8.996;2023-03-31T04:02:37;4.47;;;3.15;;
72524;SDS011;60547;48.502;8.996;2023-03-31T04:05:03;5.65;;;2.40;;
72524;SDS011;60547;48.502;8.996;2023-03-31T04:07:29;8.40;;;3.17;;
72524;SDS011;60547;48.502;8.996;2023-03-31T04:09:54;9.25;;;3.33;;
72524;SDS011;60547;48.502;8.996;2023-03-31T04:12:20;8.10;;;3.05;;
72524;SDS011;60547;48.502;8.996;2023-03-31T04:14:45;6.30;;;3.58;;
72524;SDS011;60547;48.502;8.996;2023-03-31T04:17:11;6.45;;;2.92;;
72524;SDS011;60547;48.502;8.996;2023-03-31T04:19:40;6.53;;;3.00;;
72524;SDS011;60547;48.502;8.996;2023-03-31T04:22:06;6.85;;;2.90;;
72524;SDS011;60547;48.502;8.996;2023-03-31T04:24:39;6.47;;;3.05;;
72524;SDS011;60547;48.502;8.996;2023-03-31T04:27:04;7.70;;;2.42;;
72524;SDS011;60547;48.502;8.996;2023-03-31T04:29:36;8.63;;;3.20;;
72524;SDS011;60547;48.502;8.996;2023-03-31T04:32:02;6.10;;;2.58;;
72524;SDS011;60547;48.502;8.996;2023-03-31T04:34:32;9.98;;;2.78;;
72524;SDS011;60547;48.502;8.996;2023-03-31T04:37:01;6.80;;;2.80;;
72524;SDS011;60547;48.502;8.996;2023-03-31T04:39:29;5.03;;;2.40;;
72524;SDS011;60547;48.502;8.996;2023-03-31T04:41:56;6.70;;;2.88;;
72524;SDS011;60547;48.502;8.996;2023-03-31T04:44:22;7.07;;;3.15;;
72524;SDS011;60547;48.502;8.996;2023-03-31T04:46:47;5.75;;;3.03;;
72524;SDS011;60547;48.502;8.996;2023-03-31T04:49:13;5.82;;;3.30;;
72524;SDS011;60547;48.502;8.996;2023-03-31T04:51:39;7.00;;;3.60;;
72524;SDS011;60547;48.502;8.996;2023-03-31T04:54:04;8.25;;;4.15;;
72524;SDS011;60547;48.502;8.996;2023-03-31T04:56:30;8.45;;;4.15;;
72524;SDS011;60547;48.502;8.996;2023-03-31T04:58:55;8.82;;;3.78;;
72524;SDS011;60547;48.502;8.996;2023-03-31T05:01:21;8.38;;;3.47;;
72524;SDS011;60547;48.502;8.996;2023-03-31T05:03:47;9.77;;;3.83;;
72524;SDS011;60547;48.502;8.996;2023-03-31T05:06:17;9.55;;;3.60;;
72524;SDS011;60547;48.502;8.996;2023-03-31T05:08:46;7.20;;;4.20;;
72524;SDS011;60547;48.502;8.996;2023-03-31T05:11:12;10.30;;;4.22;;
72524;SDS011;60547;48.502;8.996;2023-03-31T05:13:37;9.05;;;4.88;;
72524;SDS011;60547;48.502;8.996;2023-03-31T05:16:09;10.50;;;5.10;;
72524;SDS011;60547;48.502;8.996;2023-03-31T05:18:38;9.65;;;4.60;;
72524;SDS011;60547;48.502;8.996;2023-03-31T05:21:12;8.88;;;5.03;;
72524;SDS011;60547;48.502;8.996;2023-03-31T05:23:39;11.65;;;4.72;;
72524;SDS011;60547;48.502;8.996;2023-03-31T05:26:05;8.05;;;4.68;;
72524;SDS011;60547;48.502;8.996;2023-03-31T05:28:32;7.30;;;4.47;;
72524;SDS011;60547;48.502;8.996;2023-03-31T05:30:59;9.35;;;3.85;;
72524;SDS011;60547;48.502;8.996;2023-03-31T05:33:26;8.02;;;3.80;;
72524;SDS011;60547;48.502;8.996;2023-03-31T05:35:52;8.95;;;4.07;;
72524;SDS011;60547;48.502;8.996;2023-03-31T05:38:17;9.52;;;3.90;;
72524;SDS011;60547;48.502;8.996;2023-03-31T05:40:43;11.85;;;4.53;;
72524;SDS011;60547;48.502;8.996;2023-03-31T05:43:08;8.90;;;4.10;;
72524;SDS011;60547;48.502;8.996;2023-03-31T05:45:34;10.70;;;4.82;;
72524;SDS011;60547;48.502;8.996;2023-03-31T05:47:59;11.43;;;4.68;;
72524;SDS011;60547;48.502;8.996;2023-03-31T05:50:25;10.57;;;4.38;;
72524;SDS011;60547;48.502;8.996;2023-03-31T05:52:51;11.75;;;4.60;;
72524;SDS011;60547;48.502;8.996;2023-03-31T05:55:16;8.38;;;4.07;;
72524;SDS011;60547;48.502;8.996;2023-03-31T05:57:43;12.75;;;4.25;;
72524;SDS011;60547;48.502;8.996;2023-03-31T06:00:08;9.20;;;3.90;;
72524;SDS011;60547;48.502;8.996;2023-03-31T06:02:35;11.30;;;5.65;;
72524;SDS011;60547;48.502;8.996;2023-03-31T06:05:01;13.75;;;7.82;;
72524;SDS011;60547;48.502;8.996;2023-03-31T06:07:27;28.85;;;12.73;;
72524;SDS011;60547;48.502;8.996;2023-03-31T06:09:53;21.20;;;10.55;;
72524;SDS011;60547;48.502;8.996;2023-03-31T06:12:19;12.10;;;6.85;;
72524;SDS011;60547;48.502;8.996;2023-03-31T06:14:44;11.18;;;4.93;;
72524;SDS011;60547;48.502;8.996;2023-03-31T06:17:10;10.25;;;4.47;;
72524;SDS011;60547;48.502;8.996;2023-03-31T06:19:35;10.60;;;4.07;;
72524;SDS011;60547;48.502;8.996;2023-03-31T06:22:01;10.77;;;4.47;;
72524;SDS011;60547;48.502;8.996;2023-03-31T06:24:26;11.85;;;6.75;;
72524;SDS011;60547;48.502;8.996;2023-03-31T06:26:52;13.80;;;6.45;;
72524;SDS011;60547;48.502;8.996;2023-03-31T06:29:17;11.70;;;6.18;;
72524;SDS011;60547;48.502;8.996;2023-03-31T06:31:43;15.13;;;7.53;;
72524;SDS011;60547;48.502;8.996;2023-03-31T06:34:08;12.38;;;6.32;;
72524;SDS011;60547;48.502;8.996;2023-03-31T06:36:34;10.15;;;6.03;;
72524;SDS011;60547;48.502;8.996;2023-03-31T06:38:59;10.00;;;5.22;;
72524;SDS011;60547;48.502;8.996;2023-03-31T06:41:25;10.20;;;4.55;;
72524;SDS011;60547;48.502;8.996;2023-03-31T06:43:51;10.57;;;3.95;;
72524;SDS011;60547;48.502;8.996;2023-03-31T06:46:17;6.63;;;3.20;;
72524;SDS011;60547;48.502;8.996;2023-03-31T06:48:42;7.95;;;3.65;;
72524;SDS011;60547;48.502;8.996;2023-03-31T06:51:08;11.05;;;3.90;;
72524;SDS011;60547;48.502;8.996;2023-03-31T06:53:35;6.78;;;3.40;;
72524;SDS011;60547;48.502;8.996;2023-03-31T06:56:01;7.35;;;3.88;;
72524;SDS011;60547;48.502;8.996;2023-03-31T06:58:31;8.93;;;4.40;;
72524;SDS011;60547;48.502;8.996;2023-03-31T07:00:57;8.30;;;4.10;;
72524;SDS011;60547;48.502;8.996;2023-03-31T07:03:23;6.47;;;4.13;;
72524;SDS011;60547;48.502;8.996;2023-03-31T07:05:49;6.97;;;2.97;;
72524;SDS011;60547;48.502;8.996;2023-03-31T07:08:16;7.32;;;3.42;;
72524;SDS011;60547;48.502;8.996;2023-03-31T07:10:42;6.53;;;3.33;;
72524;SDS011;60547;48.502;8.996;2023-03-31T07:13:10;6.32;;;2.88;;
72524;SDS011;60547;48.502;8.996;2023-03-31T07:15:37;4.43;;;2.58;;
72524;SDS011;60547;48.502;8.996;2023-03-31T07:18:02;4.25;;;2.22;;
72524;SDS011;60547;48.502;8.996;2023-03-31T07:20:28;4.70;;;2.20;;
72524;SDS011;60547;48.502;8.996;2023-03-31T07:22:55;5.68;;;2.00;;
72524;SDS011;60547;48.502;8.996;2023-03-31T07:25:20;3.55;;;1.80;;
72524;SDS011;60547;48.502;8.996;2023-03-31T07:27:46;3.95;;;1.50;;
72524;SDS011;60547;48.502;8.996;2023-03-31T07:30:15;4.25;;;1.70;;
72524;SDS011;60547;48.502;8.996;2023-03-31T07:32:47;3.78;;;1.40;;
72524;SDS011;60547;48.502;8.996;2023-03-31T07:35:14;3.85;;;1.60;;
72524;SDS011;60547;48.502;8.996;2023-03-31T07:37:41;4.22;;;1.73;;
72524;SDS011;60547;48.502;8.996;2023-03-31T07:40:10;3.92;;;1.70;;
72524;SDS011;60547;48.502;8.996;2023-03-31T07:42:39;2.90;;;1.77;;
72524;SDS011;60547;48.502;8.996;2023-03-31T07:45:05;3.60;;;1.90;;
72524;SDS011;60547;48.502;8.996;2023-03-31T07:47:31;3.75;;;1.92;;
72524;SDS011;60547;48.502;8.996;2023-03-31T07:49:57;4.15;;;2.50;;
72524;SDS011;60547;48.502;8.996;2023-03-31T07:52:23;4.32;;;1.90;;
72524;SDS011;60547;48.502;8.996;2023-03-31T07:54:48;4.72;;;1.40;;
72524;SDS011;60547;48.502;8.996;2023-03-31T07:57:16;2.03;;;1.23;;
72524;SDS011;60547;48.502;8.996;2023-03-31T07:59:44;2.03;;;1.02;;
72524;SDS011;60547;48.502;8.996;2023-03-31T08:02:11;3.00;;;1.27;;
72524;SDS011;60547;48.502;8.996;2023-03-31T08:04:38;3.13;;;1.23;;
72524;SDS011;60547;48.502;8.996;2023-03-31T08:07:07;3.75;;;1.80;;
72524;SDS011;60547;48.502;8.996;2023-03-31T08:09:33;3.85;;;2.10;;
72524;SDS011;60547;48.502;8.996;2023-03-31T08:11:59;7.43;;;3.85;;
72524;SDS011;60547;48.502;8.996;2023-03-31T08:14:24;3.95;;;1.90;;
72524;SDS011;60547;48.502;8.996;2023-03-31T08:16:50;3.60;;;1.48;;
72524;SDS011;60547;48.502;8.996;2023-03-31T08:19:17;2.78;;;1.17;;
72524;SDS011;60547;48.502;8.996;2023-03-31T08:21:43;2.65;;;1.20;;
72524;SDS011;60547;48.502;8.996;2023-03-31T08:24:08;2.53;;;1.30;;
72524;SDS011;60547;48.502;8.996;2023-03-31T08:26:34;2.88;;;1.40;;
72524;SDS011;60547;48.502;8.996;2023-03-31T08:28:59;3.83;;;1.50;;
72524;SDS011;60547;48.502;8.996;2023-03-31T08:31:25;2.63;;;0.95;;
72524;SDS011;60547;48.502;8.996;2023-03-31T08:33:53;2.47;;;1.10;;
72524;SDS011;60547;48.502;8.996;2023-03-31T08:36:19;3.28;;;1.05;;
72524;SDS011;60547;48.502;8.996;2023-03-31T08:38:45;2.20;;;0.93;;
72524;SDS011;60547;48.502;8.996;2023-03-31T08:43:49;2.45;;;0.93;;
72524;SDS011;60547;48.502;8.996;2023-03-31T08:46:17;2.45;;;1.00;;
72524;SDS011;60547;48.502;8.996;2023-03-31T08:48:44;2.08;;;0.90;;
72524;SDS011;60547;48.502;8.996;2023-03-31T08:52:00;2.70;;;1.00;;
72524;SDS011;60547;48.502;8.996;2023-03-31T08:54:16;3.67;;;1.00;;
72524;SDS011;60547;48.502;8.996;2023-03-31T08:56:50;2.40;;;1.05;;
72524;SDS011;60547;48.502;8.996;2023-03-31T09:07:32;2.80;;;0.90;;
72524;SDS011;60547;48.502;8.996;2023-03-31T09:15:47;3.65;;;1.25;;
72524;SDS011;60547;48.502;8.996;2023-03-31T09:18:26;1.35;;;0.70;;
72524;SDS011;60547;48.502;8.996;2023-03-31T09:21:01;3.88;;;0.90;;
72524;SDS011;60547;48.502;8.996;2023-03-31T09:23:35;2.15;;;0.70;;
72524;SDS011;60547;48.502;8.996;2023-03-31T09:26:05;2.65;;;0.90;;
72524;SDS011;60547;48.502;8.996;2023-03-31T09:28:42;2.25;;;0.85;;
72524;SDS011;60547;48.502;8.996;2023-03-31T09:31:12;2.97;;;1.10;;
72524;SDS011;60547;48.502;8.996;2023-03-31T09:33:44;3.30;;;0.80;;
72524;SDS011;60547;48.502;8.996;2023-03-31T09:36:13;3.70;;;1.08;;
72524;SDS011;60547;48.502;8.996;2023-03-31T09:38:41;3.00;;;0.82;;
72524;SDS011;60547;48.502;8.996;2023-03-31T09:41:08;3.25;;;0.70;;
72524;SDS011;60547;48.502;8.996;2023-03-31T09:43:35;3.45;;;0.90;;
72524;SDS011;60547;48.502;8.996;2023-03-31T09:46:03;3.97;;;1.15;;
72524;SDS011;60547;48.502;8.996;2023-03-31T09:48:37;3.95;;;1.00;;
72524;SDS011;60547;48.502;8.996;2023-03-31T09:51:05;3.15;;;1.40;;
72524;SDS011;60547;48.502;8.996;2023-03-31T09:53:38;3.40;;;1.30;;
72524;SDS011;60547;48.502;8.996;2023-03-31T09:56:08;3.72;;;1.10;;
72524;SDS011;60547;48.502;8.996;2023-03-31T09:58:39;4.97;;;1.30;;
72524;SDS011;60547;48.502;8.996;2023-03-31T10:01:06;5.13;;;1.00;;
72524;SDS011;60547;48.502;8.996;2023-03-31T10:03:51;5.75;;;1.20;;
72524;SDS011;60547;48.502;8.996;2023-03-31T10:06:19;4.80;;;1.05;;
72524;SDS011;60547;48.502;8.996;2023-03-31T10:08:58;5.20;;;1.05;;
72524;SDS011;60547;48.502;8.996;2023-03-31T10:11:27;4.07;;;1.45;;
72524;SDS011;60547;48.502;8.996;2023-03-31T10:14:14;3.30;;;1.27;;
72524;SDS011;60547;48.502;8.996;2023-03-31T10:16:44;4.18;;;1.25;;
72524;SDS011;60547;48.502;8.996;2023-03-31T10:21:45;6.22;;;1.67;;
72524;SDS011;60547;48.502;8.996;2023-03-31T10:24:17;5.88;;;1.30;;
72524;SDS011;60547;48.502;8.996;2023-03-31T10:26:46;4.20;;;1.25;;
72524;SDS011;60547;48.502;8.996;2023-03-31T10:29:14;4.45;;;1.20;;
72524;SDS011;60547;48.502;8.996;2023-03-31T10:31:49;3.20;;;1.20;;
72524;SDS011;60547;48.502;8.996;2023-03-31T10:34:15;4.10;;;1.15;;
72524;SDS011;60547;48.502;8.996;2023-03-31T10:36:45;5.82;;;1.27;;
72524;SDS011;60547;48.502;8.996;2023-03-31T10:39:14;4.68;;;1.20;;
72524;SDS011;60547;48.502;8.996;2023-03-31T10:41:41;5.45;;;1.27;;
72524;SDS011;60547;48.502;8.996;2023-03-31T10:49:40;2.55;;;1.05;;
72524;SDS011;60547;48.502;8.996;2023-03-31T10:52:18;5.30;;;1.08;;
72524;SDS011;60547;48.502;8.996;2023-03-31T10:54:57;4.50;;;1.08;;
72524;SDS011;60547;48.502;8.996;2023-03-31T11:03:29;4.85;;;1.13;;
72524;SDS011;60547;48.502;8.996;2023-03-31T11:08:40;4.25;;;0.80;;
72524;SDS011;60547;48.502;8.996;2023-03-31T11:17:35;6.35;;;1.42;;
72524;SDS011;60547;48.502;8.996;2023-03-31T11:20:17;4.07;;;0.88;;
72524;SDS011;60547;48.502;8.996;2023-03-31T11:22:58;3.50;;;1.00;;
72524;SDS011;60547;48.502;8.996;2023-03-31T11:25:31;5.03;;;0.90;;
72524;SDS011;60547;48.502;8.996;2023-03-31T11:42:32;1.25;;;0.40;;
72524;SDS011;60547;48.502;8.996;2023-03-31T11:45:18;4.63;;;0.47;;
72524;SDS011;60547;48.502;8.996;2023-03-31T11:47:48;1.45;;;0.40;;
72524;SDS011;60547;48.502;8.996;2023-03-31T11:50:21;1.13;;;0.45;;
72524;SDS011;60547;48.502;8.996;2023-03-31T11:52:59;1.67;;;0.40;;
72524;SDS011;60547;48.502;8.996;2023-03-31T11:55:29;1.25;;;0.50;;
72524;SDS011;60547;48.502;8.996;2023-03-31T11:58:03;0.82;;;0.40;;
72524;SDS011;60547;48.502;8.996;2023-03-31T12:00:40;2.88;;;0.70;;
72524;SDS011;60547;48.502;8.996;2023-03-31T12:06:18;2.20;;;0.50;;
72524;SDS011;60547;48.502;8.996;2023-03-31T12:11:29;1.50;;;0.80;;
72524;SDS011;60547;48.502;8.996;2023-03-31T12:16:39;1.15;;;0.68;;
72524;SDS011;60547;48.502;8.996;2023-03-31T12:22:01;4.03;;;0.82;;
72524;SDS011;60547;48.502;8.996;2023-03-31T12:24:31;1.60;;;0.77;;
72524;SDS011;60547;48.502;8.996;2023-03-31T12:29:42;2.83;;;0.82;;
72524;SDS011;60547;48.502;8.996;2023-03-31T12:32:16;1.95;;;0.60;;
72524;SDS011;60547;48.502;8.996;2023-03-31T12:34:45;1.63;;;0.43;;
72524;SDS011;60547;48.502;8.996;2023-03-31T12:51:41;2.88;;;0.70;;
72524;SDS011;60547;48.502;8.996;2023-03-31T12:59:40;2.63;;;0.68;;
72524;SDS011;60547;48.502;8.996;2023-03-31T13:04:41;4.05;;;1.00;;
72524;SDS011;60547;48.502;8.996;2023-03-31T13:07:50;3.63;;;1.00;;
72524;SDS011;60547;48.502;8.996;2023-03-31T13:13:05;5.03;;;1.20;;
72524;SDS011;60547;48.502;8.996;2023-03-31T13:15:38;4.15;;;1.00;;
72524;SDS011;60547;48.502;8.996;2023-03-31T13:18:04;4.55;;;1.40;;
72524;SDS011;60547;48.502;8.996;2023-03-31T13:20:32;5.45;;;1.10;;
72524;SDS011;60547;48.502;8.996;2023-03-31T13:23:02;6.63;;;1.30;;
72524;SDS011;60547;48.502;8.996;2023-03-31T13:27:56;2.75;;;0.80;;
72524;SDS011;60547;48.502;8.996;2023-03-31T13:33:13;4.05;;;1.05;;
72524;SDS011;60547;48.502;8.996;2023-03-31T13:35:45;2.63;;;0.80;;
72524;SDS011;60547;48.502;8.996;2023-03-31T13:38:35;4.10;;;0.90;;
72524;SDS011;60547;48.502;8.996;2023-03-31T13:49:18;3.55;;;0.80;;
72524;SDS011;60547;48.502;8.996;2023-03-31T13:52:10;2.63;;;0.82;;
72524;SDS011;60547;48.502;8.996;2023-03-31T14:06:34;1.58;;;0.22;;
72524;SDS011;60547;48.502;8.996;2023-03-31T14:11:25;2.78;;;0.70;;
72524;SDS011;60547;48.502;8.996;2023-03-31T14:16:28;2.10;;;0.80;;
72524;SDS011;60547;48.502;8.996;2023-03-31T14:19:01;1.35;;;0.63;;
72524;SDS011;60547;48.502;8.996;2023-03-31T14:21:47;2.65;;;1.00;;
72524;SDS011;60547;48.502;8.996;2023-03-31T14:24:38;2.83;;;0.70;;
72524;SDS011;60547;48.502;8.996;2023-03-31T14:27:17;4.32;;;1.05;;
72524;SDS011;60547;48.502;8.996;2023-03-31T14:29:58;4.25;;;0.73;;
72524;SDS011;60547;48.502;8.996;2023-03-31T14:32:42;1.73;;;0.60;;
72524;SDS011;60547;48.502;8.996;2023-03-31T14:35:28;2.00;;;0.80;;
72524;SDS011;60547;48.502;8.996;2023-03-31T14:38:03;2.40;;;0.80;;
72524;SDS011;60547;48.502;8.996;2023-03-31T14:40:33;2.03;;;0.63;;
72524;SDS011;60547;48.502;8.996;2023-03-31T14:43:10;2.10;;;0.57;;
72524;SDS011;60547;48.502;8.996;2023-03-31T14:45:45;3.45;;;0.47;;
72524;SDS011;60547;48.502;8.996;2023-03-31T14:48:12;2.58;;;0.60;;
72524;SDS011;60547;48.502;8.996;2023-03-31T14:50:42;1.38;;;0.40;;
72524;SDS011;60547;48.502;8.996;2023-03-31T14:53:13;0.95;;;0.40;;
72524;SDS011;60547;48.502;8.996;2023-03-31T14:55:40;1.70;;;0.80;;
72524;SDS011;60547;48.502;8.996;2023-03-31T14:58:07;3.45;;;0.80;;
72524;SDS011;60547;48.502;8.996;2023-03-31T15:00:38;1.13;;;0.50;;
72524;SDS011;60547;48.502;8.996;2023-03-31T15:03:06;2.35;;;0.60;;
72524;SDS011;60547;48.502;8.996;2023-03-31T15:05:37;1.90;;;0.68;;
72524;SDS011;60547;48.502;8.996;2023-03-31T15:08:07;0.98;;;0.50;;
72524;SDS011;60547;48.502;8.996;2023-03-31T15:10:39;2.08;;;0.75;;
72524;SDS011;60547;48.502;8.996;2023-03-31T15:13:16;2.00;;;0.80;;
72524;SDS011;60547;48.502;8.996;2023-03-31T15:15:44;3.47;;;0.90;;
72524;SDS011;60547;48.502;8.996;2023-03-31T15:18:11;1.63;;;0.70;;
72524;SDS011;60547;48.502;8.996;2023-03-31T15:20:39;2.20;;;1.05;;
72524;SDS011;60547;48.502;8.996;2023-03-31T15:23:18;1.48;;;0.50;;
72524;SDS011;60547;48.502;8.996;2023-03-31T15:25:57;1.38;;;0.60;;
72524;SDS011;60547;48.502;8.996;2023-03-31T15:28:30;3.05;;;0.70;;
72524;SDS011;60547;48.502;8.996;2023-03-31T15:31:01;1.55;;;0.70;;
72524;SDS011;60547;48.502;8.996;2023-03-31T15:33:32;1.98;;;0.65;;
72524;SDS011;60547;48.502;8.996;2023-03-31T15:36:01;3.08;;;0.85;;
72524;SDS011;60547;48.502;8.996;2023-03-31T15:38:27;2.05;;;0.63;;
72524;SDS011;60547;48.502;8.996;2023-03-31T15:40:56;1.92;;;0.88;;
72524;SDS011;60547;48.502;8.996;2023-03-31T15:46:07;1.38;;;0.65;;
72524;SDS011;60547;48.502;8.996;2023-03-31T15:48:35;2.45;;;0.98;;
72524;SDS011;60547;48.502;8.996;2023-03-31T15:53:44;3.28;;;0.90;;
72524;SDS011;60547;48.502;8.996;2023-03-31T15:59:27;2.45;;;0.80;;
72524;SDS011;60547;48.502;8.996;2023-03-31T16:01:56;2.28;;;0.90;;
72524;SDS011;60547;48.502;8.996;2023-03-31T16:04:27;2.65;;;0.80;;
72524;SDS011;60547;48.502;8.996;2023-03-31T16:06:58;1.95;;;0.90;;
72524;SDS011;60547;48.502;8.996;2023-03-31T16:09:51;3.10;;;0.85;;
72524;SDS011;60547;48.502;8.996;2023-03-31T16:12:22;5.90;;;1.00;;
72524;SDS011;60547;48.502;8.996;2023-03-31T16:19:59;3.10;;;1.30;;
72524;SDS011;60547;48.502;8.996;2023-03-31T16:22:39;2.53;;;0.85;;
72524;SDS011;60547;48.502;8.996;2023-03-31T16:25:10;3.53;;;0.90;;
72524;SDS011;60547;48.502;8.996;2023-03-31T16:27:47;6.00;;;1.10;;
72524;SDS011;60547;48.502;8.996;2023-03-31T16:30:18;2.92;;;0.73;;
72524;SDS011;60547;48.502;8.996;2023-03-31T16:32:59;5.30;;;1.30;;
72524;SDS011;60547;48.502;8.996;2023-03-31T16:35:35;7.55;;;2.65;;
72524;SDS011;60547;48.502;8.996;2023-03-31T16:38:03;3.38;;;0.70;;
72524;SDS011;60547;48.502;8.996;2023-03-31T16:40:30;5.32;;;1.00;;
72524;SDS011;60547;48.502;8.996;2023-03-31T16:43:34;3.45;;;0.80;;
72524;SDS011;60547;48.502;8.996;2023-03-31T16:45:58;7.93;;;1.25;;
72524;SDS011;60547;48.502;8.996;2023-03-31T16:48:26;1.98;;;0.80;;
72524;SDS011;60547;48.502;8.996;2023-03-31T16:50:53;3.17;;;0.77;;
72524;SDS011;60547;48.502;8.996;2023-03-31T16:53:22;3.33;;;1.08;;
72524;SDS011;60547;48.502;8.996;2023-03-31T16:55:50;3.65;;;1.02;;
72524;SDS011;60547;48.502;8.996;2023-03-31T16:58:16;1.80;;;0.82;;
72524;SDS011;60547;48.502;8.996;2023-03-31T17:00:42;2.78;;;1.00;;
72524;SDS011;60547;48.502;8.996;2023-03-31T17:03:09;3.38;;;1.00;;
72524;SDS011;60547;48.502;8.996;2023-03-31T17:05:46;2.40;;;0.85;;
72524;SDS011;60547;48.502;8.996;2023-03-31T17:08:15;3.08;;;0.90;;
72524;SDS011;60547;48.502;8.996;2023-03-31T17:10:41;2.95;;;0.80;;
72524;SDS011;60547;48.502;8.996;2023-03-31T17:13:18;1.65;;;0.50;;
72524;SDS011;60547;48.502;8.996;2023-03-31T17:15:44;4.32;;;0.98;;
72524;SDS011;60547;48.502;8.996;2023-03-31T17:18:10;4.82;;;0.70;;
72524;SDS011;60547;48.502;8.996;2023-03-31T17:20:36;3.05;;;0.77;;
72524;SDS011;60547;48.502;8.996;2023-03-31T17:23:01;6.20;;;0.90;;
72524;SDS011;60547;48.502;8.996;2023-03-31T17:25:27;4.82;;;1.25;;
72524;SDS011;60547;48.502;8.996;2023-03-31T17:27:53;4.75;;;0.85;;
72524;SDS011;60547;48.502;8.996;2023-03-31T17:30:20;3.08;;;1.10;;
72524;SDS011;60547;48.502;8.996;2023-03-31T17:32:45;2.67;;;0.98;;
72524;SDS011;60547;48.502;8.996;2023-03-31T17:35:12;4.18;;;1.83;;
72524;SDS011;60547;48.502;8.996;2023-03-31T17:37:44;3.78;;;1.30;;
72524;SDS011;60547;48.502;8.996;2023-03-31T17:40:11;3.25;;;1.08;;
72524;SDS011;60547;48.502;8.996;2023-03-31T17:42:37;3.40;;;1.40;;
72524;SDS011;60547;48.502;8.996;2023-03-31T17:45:03;5.22;;;1.10;;
72524;SDS011;60547;48.502;8.996;2023-03-31T17:47:29;6.70;;;1.70;;
72524;SDS011;60547;48.502;8.996;2023-03-31T17:49:55;3.78;;;1.20;;
72524;SDS011;60547;48.502;8.996;2023-03-31T17:52:20;5.47;;;1.80;;
72524;SDS011;60547;48.502;8.996;2023-03-31T17:54:46;5.28;;;1.60;;
72524;SDS011;60547;48.502;8.996;2023-03-31T17:57:12;7.13;;;2.22;;
72524;SDS011;60547;48.502;8.996;2023-03-31T17:59:38;5.65;;;1.70;;
72524;SDS011;60547;48.502;8.996;2023-03-31T18:02:03;5.97;;;2.17;;
72524;SDS011;60547;48.502;8.996;2023-03-31T18:04:29;5.57;;;1.63;;
72524;SDS011;60547;48.502;8.996;2023-03-31T18:06:55;3.67;;;1.77;;
72524;SDS011;60547;48.502;8.996;2023-03-31T18:09:20;5.45;;;1.50;;